createdAt,value
2022-10-02T00:01:12.998Z,3.45
2022-10-02T00:04:49.934Z,4.88
2022-10-02T00:08:28.946Z,3.17
2022-10-02T00:12:01.924Z,3.70
2022-10-02T00:15:36.013Z,4.65
2022-10-02T00:19:00.938Z,2.83
2022-10-02T00:22:33.984Z,4.38
2022-10-02T00:25:57.498Z,3.33
2022-10-02T00:29:25.066Z,3.70
2022-10-02T00:33:29.998Z,2.85
2022-10-02T00:37:07.060Z,3.42
2022-10-02T00:40:48.960Z,3.55
2022-10-02T00:44:22.061Z,3.17
2022-10-02T00:48:06.973Z,3.78
2022-10-02T00:51:54.951Z,4.15
2022-10-02T00:55:45.985Z,3.42
2022-10-02T00:59:45.984Z,4.63
2022-10-02T01:03:31.016Z,3.50
2022-10-02T01:06:54.944Z,2.47
2022-10-02T01:10:19.017Z,2.85
2022-10-02T01:13:42.957Z,3.83
2022-10-02T01:17:06.992Z,2.75
2022-10-02T01:20:33.948Z,2.50
2022-10-02T01:24:20.125Z,3.08
2022-10-02T01:27:39.349Z,3.72
2022-10-02T01:31:00.004Z,4.25
2022-10-02T01:34:25.084Z,3.55
2022-10-02T01:37:52.080Z,3.83
2022-10-02T01:41:15.977Z,3.10
2022-10-02T01:44:40.087Z,7.32
2022-10-02T01:48:11.020Z,10.70
2022-10-02T01:52:07.997Z,18.60
2022-10-02T01:55:49.051Z,9.52
2022-10-02T01:59:36.069Z,6.25
2022-10-02T02:03:27.083Z,5.22
2022-10-02T02:07:05.132Z,4.25
2022-10-02T02:10:53.010Z,5.07
2022-10-02T02:14:19.134Z,6.65
2022-10-02T02:17:54.013Z,4.72
2022-10-02T02:21:27.016Z,4.20
2022-10-02T02:25:23.095Z,3.70
2022-10-02T02:28:48.041Z,3.53
2022-10-02T02:32:13.077Z,4.32
2022-10-02T02:35:49.023Z,4.85
2022-10-02T02:39:20.101Z,3.35
2022-10-02T02:42:47.043Z,3.92
2022-10-02T02:46:13.159Z,2.85
2022-10-02T02:49:38.094Z,5.00
2022-10-02T02:53:31.113Z,4.40
2022-10-02T02:56:56.130Z,12.38
2022-10-02T03:00:21.108Z,4.95
2022-10-02T03:03:45.030Z,6.30
2022-10-02T03:07:13.021Z,6.65
2022-10-02T03:10:52.034Z,11.63
2022-10-02T03:14:34.128Z,10.63
2022-10-02T03:19:05.055Z,7.95
2022-10-02T03:22:51.015Z,7.90
2022-10-02T03:26:24.087Z,10.93
2022-10-02T03:30:08.129Z,8.77
2022-10-02T03:33:33.029Z,9.20
2022-10-02T03:36:58.139Z,4.43
2022-10-02T03:40:22.041Z,6.70
2022-10-02T03:43:46.059Z,5.47
2022-10-02T03:47:10.043Z,4.85
2022-10-02T03:50:36.334Z,3.95
2022-10-02T03:54:02.066Z,5.60
2022-10-02T03:57:33.052Z,3.95
2022-10-02T04:01:21.133Z,4.10
2022-10-02T04:05:06.257Z,4.38
2022-10-02T04:08:54.063Z,5.22
2022-10-02T04:12:40.164Z,6.40
2022-10-02T04:16:12.200Z,5.57
2022-10-02T04:19:48.051Z,6.75
2022-10-02T04:23:24.167Z,7.07
2022-10-02T04:26:51.051Z,6.80
2022-10-02T04:30:22.216Z,7.50
2022-10-02T04:33:47.054Z,5.97
2022-10-02T04:37:24.110Z,6.60
2022-10-02T04:41:07.071Z,6.47
2022-10-02T04:44:54.098Z,7.50
2022-10-02T04:48:42.129Z,5.20
2022-10-02T04:52:15.070Z,7.40
2022-10-02T04:56:16.147Z,6.70
2022-10-02T04:59:58.061Z,5.95
2022-10-02T05:03:34.108Z,6.72
2022-10-02T05:07:16.059Z,6.45
2022-10-02T05:10:48.108Z,6.30
2022-10-02T05:14:38.060Z,7.82
2022-10-02T05:18:01.114Z,8.27
2022-10-02T05:21:33.060Z,8.43
2022-10-02T05:25:06.077Z,6.88
2022-10-02T05:28:31.712Z,6.45
2022-10-02T05:32:04.125Z,7.45
2022-10-02T05:35:40.076Z,9.32
2022-10-02T05:39:11.088Z,7.75
2022-10-02T05:42:51.088Z,10.43
2022-10-02T05:46:18.129Z,9.85
2022-10-02T05:49:53.079Z,9.38
2022-10-02T05:53:26.077Z,8.75
2022-10-02T05:57:00.100Z,7.25
2022-10-02T06:00:52.148Z,7.35
2022-10-02T06:04:25.081Z,8.55
2022-10-02T06:07:49.065Z,7.97
2022-10-02T06:11:36.129Z,8.43
2022-10-02T06:15:05.062Z,9.00
2022-10-02T06:18:35.076Z,7.70
2022-10-02T06:22:06.105Z,7.43
2022-10-02T06:25:45.127Z,7.43
2022-10-02T06:29:30.028Z,9.90
2022-10-02T06:32:49.096Z,6.95
2022-10-02T06:36:29.108Z,7.68
2022-10-02T06:40:14.157Z,6.95
2022-10-02T06:43:56.064Z,6.70
2022-10-02T06:47:35.154Z,7.55
2022-10-02T06:51:25.054Z,8.75
2022-10-02T06:55:06.151Z,7.00
2022-10-02T06:58:48.094Z,6.78
2022-10-02T07:02:21.178Z,7.25
2022-10-02T07:06:18.116Z,8.85
2022-10-02T07:10:02.124Z,8.70
2022-10-02T07:13:34.171Z,8.00
2022-10-02T07:17:22.302Z,7.65
2022-10-02T07:20:49.167Z,7.38
2022-10-02T07:24:25.087Z,10.57
2022-10-02T07:28:33.190Z,11.10
2022-10-02T07:32:16.686Z,9.10
2022-10-02T07:35:52.125Z,8.32
2022-10-02T07:40:11.106Z,7.97
2022-10-02T07:44:02.149Z,9.48
2022-10-02T07:47:29.143Z,8.82
2022-10-02T07:51:49.138Z,10.10
2022-10-02T07:55:21.160Z,5.68
2022-10-02T07:59:10.189Z,10.50
2022-10-02T08:02:48.178Z,7.22
2022-10-02T08:06:14.187Z,9.38
2022-10-02T08:09:49.196Z,8.98
2022-10-02T08:13:28.120Z,9.90
2022-10-02T08:16:59.150Z,8.75
2022-10-02T08:20:31.156Z,6.38
2022-10-02T08:24:07.158Z,8.27
2022-10-02T08:27:36.163Z,5.43
2022-10-02T08:31:00.201Z,8.02
2022-10-02T08:34:34.163Z,6.82
2022-10-02T08:38:22.200Z,9.55
2022-10-02T08:41:58.188Z,7.60
2022-10-02T08:45:47.198Z,7.80
2022-10-02T08:49:17.181Z,7.57
2022-10-02T08:52:50.176Z,7.40
2022-10-02T08:56:38.477Z,10.80
2022-10-02T09:00:22.169Z,10.00
2022-10-02T09:04:27.217Z,8.80
2022-10-02T09:08:06.215Z,9.27
2022-10-02T09:11:53.130Z,8.20
2022-10-02T09:15:34.207Z,9.57
2022-10-02T09:19:17.181Z,7.20
2022-10-02T09:23:03.167Z,9.02
2022-10-02T09:27:04.152Z,8.73
2022-10-02T09:30:47.187Z,5.53
2022-10-02T09:34:37.767Z,5.93
2022-10-02T09:38:23.208Z,8.52
2022-10-02T09:41:58.133Z,6.25
2022-10-02T09:45:41.227Z,7.10
2022-10-02T09:49:30.153Z,6.65
2022-10-02T09:53:15.212Z,6.68
2022-10-02T09:57:09.199Z,5.07
2022-10-02T10:01:01.231Z,6.15
2022-10-02T10:05:05.503Z,7.47
2022-10-02T10:08:42.207Z,6.93
2022-10-02T10:12:13.182Z,6.00
2022-10-02T10:15:55.215Z,6.88
2022-10-02T10:19:46.217Z,7.40
2022-10-02T10:23:59.161Z,6.40
2022-10-02T10:27:51.287Z,4.10
2022-10-02T10:31:19.266Z,7.37
2022-10-02T10:35:01.263Z,9.50
2022-10-02T10:38:51.159Z,8.65
2022-10-02T10:42:41.104Z,7.40
2022-10-02T10:46:22.166Z,6.82
2022-10-02T10:50:12.216Z,5.88
2022-10-02T10:54:01.713Z,4.95
2022-10-02T10:58:13.203Z,5.82
2022-10-02T11:01:32.256Z,6.28
2022-10-02T11:05:30.215Z,6.72
2022-10-02T11:09:12.254Z,6.50
2022-10-02T11:12:57.211Z,6.72
2022-10-02T11:16:53.255Z,5.90
2022-10-02T11:20:38.184Z,5.68
2022-10-02T11:24:26.249Z,7.18
2022-10-02T11:28:08.269Z,6.63
2022-10-02T11:31:56.258Z,6.07
2022-10-02T11:35:34.831Z,5.53
2022-10-02T11:39:01.260Z,7.40
2022-10-02T11:42:46.171Z,7.28
2022-10-02T11:46:49.278Z,5.55
2022-10-02T11:50:28.244Z,5.82
2022-10-02T11:54:20.282Z,7.68
2022-10-02T11:58:00.223Z,7.50
2022-10-02T12:01:32.281Z,6.22
2022-10-02T12:05:26.229Z,7.53
2022-10-02T12:09:09.278Z,4.40
2022-10-02T12:12:40.250Z,6.28
2022-10-02T12:16:13.293Z,5.78
2022-10-02T12:20:17.231Z,4.90
2022-10-02T12:24:54.904Z,7.90
2022-10-02T12:28:42.248Z,4.97
2022-10-02T12:32:16.222Z,6.80
2022-10-02T12:36:01.276Z,5.78
2022-10-02T12:39:47.261Z,5.68
2022-10-02T12:44:01.276Z,6.28
2022-10-02T12:47:39.214Z,5.53
2022-10-02T12:51:41.298Z,5.25
2022-10-02T12:55:31.267Z,6.82
2022-10-02T12:59:33.344Z,5.10
2022-10-02T13:03:07.291Z,5.30
2022-10-02T13:06:32.259Z,6.75
2022-10-02T13:10:16.212Z,9.20
2022-10-02T13:13:44.264Z,7.18
2022-10-02T13:17:26.277Z,4.55
2022-10-02T13:20:59.301Z,7.00
2022-10-02T13:24:55.280Z,7.55
2022-10-02T13:29:10.302Z,6.80
2022-10-02T13:32:52.279Z,6.88
2022-10-02T13:36:23.301Z,6.90
2022-10-02T13:40:26.257Z,8.27
2022-10-02T13:43:57.735Z,6.78
2022-10-02T13:47:49.459Z,6.93
2022-10-02T13:51:24.333Z,9.00
2022-10-02T13:55:00.269Z,7.03
2022-10-02T13:58:39.357Z,9.30
2022-10-02T14:02:30.277Z,8.30
2022-10-02T14:06:11.309Z,7.85
2022-10-02T14:09:58.329Z,5.75
2022-10-02T14:13:50.319Z,5.25
2022-10-02T14:17:33.313Z,6.55
2022-10-02T14:21:15.321Z,5.97
2022-10-02T14:25:13.336Z,5.68
2022-10-02T14:29:04.967Z,8.20
2022-10-02T14:32:51.327Z,8.88
2022-10-02T14:36:18.398Z,7.57
2022-10-02T14:39:47.933Z,6.03
2022-10-02T14:43:09.440Z,5.45
2022-10-02T14:46:46.352Z,6.25
2022-10-02T14:50:31.975Z,5.85
2022-10-02T14:54:18.290Z,4.55
2022-10-02T14:58:08.394Z,5.53
2022-10-02T15:01:37.511Z,8.25
2022-10-02T15:05:15.339Z,7.00
2022-10-02T15:08:40.453Z,4.65
2022-10-02T15:12:11.361Z,8.95
2022-10-02T15:15:52.466Z,6.57
2022-10-02T15:19:39.329Z,7.60
2022-10-02T15:23:26.354Z,7.90
2022-10-02T15:27:09.300Z,7.03
2022-10-02T15:30:37.340Z,5.50
2022-10-02T15:34:39.358Z,5.10
2022-10-02T15:38:27.356Z,5.10
2022-10-02T15:42:09.359Z,6.15
2022-10-02T15:45:47.419Z,5.97
2022-10-02T15:49:40.427Z,4.57
2022-10-02T15:56:45.355Z,6.85
2022-10-02T16:00:27.377Z,4.75
2022-10-02T16:04:20.324Z,3.20
2022-10-02T16:08:11.456Z,3.75
2022-10-02T16:12:00.307Z,4.90
2022-10-02T16:15:46.355Z,4.93
2022-10-02T16:19:22.353Z,4.60
2022-10-02T16:23:04.415Z,3.47
2022-10-02T16:26:37.579Z,4.43
2022-10-02T16:30:09.328Z,3.53
2022-10-02T16:33:35.382Z,5.18
2022-10-02T16:37:16.333Z,4.65
2022-10-02T16:40:58.427Z,4.17
2022-10-02T16:44:29.376Z,3.72
2022-10-02T16:48:21.378Z,3.97
2022-10-02T16:51:48.363Z,4.18
2022-10-02T16:55:36.342Z,3.20
2022-10-02T16:59:10.426Z,3.47
2022-10-02T17:02:42.399Z,6.35
2022-10-02T17:06:24.354Z,4.20
2022-10-02T17:10:01.425Z,4.10
2022-10-02T17:13:27.353Z,2.92
2022-10-02T17:17:03.463Z,4.97
2022-10-02T17:20:42.433Z,3.20
2022-10-02T17:24:23.573Z,2.75
2022-10-02T17:28:16.493Z,2.30
2022-10-02T17:35:08.476Z,3.13
2022-10-02T17:38:38.419Z,3.88
2022-10-02T17:42:24.390Z,1.50
2022-10-02T17:45:54.435Z,2.75
2022-10-02T17:49:30.477Z,2.45
2022-10-02T17:53:18.519Z,3.47
2022-10-02T17:56:59.486Z,3.95
2022-10-02T18:00:32.403Z,4.35
2022-10-02T18:04:08.461Z,5.45
2022-10-02T18:07:56.402Z,4.97
2022-10-02T18:11:47.456Z,3.97
2022-10-02T18:15:20.623Z,4.85
2022-10-02T18:19:22.419Z,4.97
2022-10-02T18:23:14.519Z,4.65
2022-10-02T18:26:59.482Z,4.27
2022-10-02T18:30:29.473Z,4.50
2022-10-02T18:34:14.451Z,4.60
2022-10-02T18:38:25.481Z,5.85
2022-10-02T18:42:03.455Z,4.55
2022-10-02T18:45:39.489Z,4.40
2022-10-02T18:49:05.413Z,4.57
2022-10-02T18:53:05.504Z,3.67
2022-10-02T18:56:34.412Z,4.00
2022-10-02T19:00:23.434Z,5.10
2022-10-02T19:04:20.504Z,3.30
2022-10-02T19:08:19.481Z,3.20
2022-10-02T19:11:44.486Z,3.10
2022-10-02T19:15:09.499Z,4.60
2022-10-02T19:18:41.440Z,3.85
2022-10-02T19:22:07.508Z,2.75
2022-10-02T19:25:36.446Z,1.75
2022-10-02T19:29:08.413Z,2.55
2022-10-02T19:32:51.526Z,2.45
2022-10-02T19:36:21.450Z,1.90
2022-10-02T19:39:54.503Z,2.38
2022-10-02T19:43:36.543Z,1.98
2022-10-02T19:46:58.087Z,1.58
2022-10-02T19:50:31.598Z,2.28
2022-10-02T19:53:59.509Z,1.42
2022-10-02T19:57:32.553Z,2.85
2022-10-02T20:00:56.559Z,1.75
2022-10-02T20:04:21.521Z,3.88
2022-10-02T20:07:46.537Z,3.08
2022-10-02T20:11:30.452Z,3.90
2022-10-02T20:14:58.493Z,5.18
2022-10-02T20:18:23.520Z,3.65
2022-10-02T20:22:25.431Z,3.15
2022-10-02T20:25:56.449Z,2.35
2022-10-02T20:29:26.442Z,1.73
2022-10-02T20:32:58.547Z,1.48
2022-10-02T20:36:29.430Z,2.95
2022-10-02T20:40:16.595Z,1.17
2022-10-02T20:44:15.534Z,2.17
2022-10-02T20:48:04.545Z,1.05
2022-10-02T20:51:30.580Z,1.42
2022-10-02T20:55:06.461Z,0.75
2022-10-02T20:59:00.465Z,2.25
2022-10-02T21:02:42.545Z,1.20
2022-10-02T21:06:24.561Z,0.20
2022-10-02T21:09:54.488Z,0.25
2022-10-02T21:13:36.483Z,0.35
2022-10-02T21:17:12.539Z,0.57
2022-10-02T21:20:53.593Z,0.85
2022-10-02T21:24:53.595Z,2.65
2022-10-02T21:28:30.566Z,1.70
2022-10-02T21:32:28.512Z,1.02
2022-10-02T21:36:44.457Z,0.82
2022-10-02T21:40:17.461Z,1.38
2022-10-02T21:44:09.452Z,0.80
2022-10-02T21:48:14.537Z,1.53
2022-10-02T21:52:14.524Z,3.80
2022-10-02T21:56:08.568Z,2.28
2022-10-02T22:00:05.475Z,2.47
2022-10-02T22:03:35.570Z,5.47
2022-10-02T22:07:22.496Z,3.95
2022-10-02T22:10:59.485Z,2.72
2022-10-02T22:14:52.635Z,4.90
2022-10-02T22:18:23.518Z,5.77
2022-10-02T22:22:05.472Z,6.38
2022-10-02T22:25:36.609Z,6.30
2022-10-02T22:29:04.522Z,6.03
2022-10-02T22:33:21.530Z,6.13
2022-10-02T22:37:04.499Z,9.57
2022-10-02T22:40:34.502Z,6.00
2022-10-02T22:44:08.470Z,5.63
2022-10-02T22:47:49.511Z,6.85
2022-10-02T22:51:18.150Z,5.03
2022-10-02T22:54:51.519Z,5.57
2022-10-02T22:58:14.500Z,5.13
2022-10-02T23:02:06.691Z,5.97
2022-10-02T23:05:43.540Z,3.90
2022-10-02T23:09:21.481Z,2.75
2022-10-02T23:13:15.491Z,3.90
2022-10-02T23:17:11.541Z,3.50
2022-10-02T23:20:55.501Z,2.72
2022-10-02T23:24:39.566Z,3.22
2022-10-02T23:28:16.500Z,3.15
2022-10-02T23:31:47.538Z,3.90
2022-10-02T23:35:35.592Z,4.00
2022-10-02T23:39:26.543Z,2.60
2022-10-02T23:43:20.524Z,2.97
2022-10-02T23:46:59.603Z,2.40
2022-10-02T23:51:01.524Z,3.67
2022-10-02T23:54:49.549Z,4.03
2022-10-02T23:58:17.508Z,3.13
